PWSweather.com
Personal Weather Stations
Station Observations
NOCONAWX
Sherman Street, Nocona, TX 76255

Sherman StreetNocona, TX 76255

Lat: 33.7851771, Lon: -97.7248693

Elevation: 981

Station Type: Davis 6152

http://www.noconaweather.com

High Low Average
Temperature 68.4°F20.2°C 45.5°F7.5°C 56.7°F13.7°C
Dew Point 44.1°F6.7°C 28.1°F-2.2°C 35.0°F1.7°C
Winds 11.0 mph 17.7 kmh 1.0 mph 1.6 kmh 6.0 mph SSE9.7 kmh SSE
Wind Gusts 23.0 mph37.0 kmh 3.0 mph4.8 kmh 14.0 mph22.5 kmh
Humidity 71% 29% 45%
Pressure 30.07 in1018.3 mb 29.87 in1011.5 mb -
Precipitation 0.00 in0.0 mm - -
Hour Temp Dew Point Humidity Winds Wind Gusts Pressure Precip Precip Rate Daily Precip Total
12:00 AM 50.5°F10.3°C 27.0°F-2.8°C 40% 4.0 mph SSE6.4 kmh SSE 9.0 mph14.5 kmh 30.08 in1018.6 mb 0.00 in0.0 mm 0.00 in/hr0.0 mm/hr 0.00 in0.0 mm
12:15 AM 50.9°F10.5°C 27.4°F-2.6°C 40% 5.0 mph SSE8.0 kmh SSE 11.0 mph17.7 kmh 30.08 in1018.6 mb 0.00 in0.0 mm 0.00 in/hr0.0 mm/hr 0.00 in0.0 mm
12:30 AM 50.8°F10.4°C 27.3°F-2.6°C 40% 5.0 mph SSE8.0 kmh SSE 9.0 mph14.5 kmh 30.07 in1018.3 mb 0.00 in0.0 mm 0.00 in/hr0.0 mm/hr 0.00 in0.0 mm
12:45 AM 50.6°F10.3°C 27.7°F-2.4°C 41% 6.0 mph SSE9.7 kmh SSE 12.0 mph19.3 kmh 30.07 in1018.3 mb 0.00 in0.0 mm 0.00 in/hr0.0 mm/hr 0.00 in0.0 mm
01:00 AM 50.4°F10.2°C 28.1°F-2.2°C 42% 5.0 mph SSE8.0 kmh SSE 9.0 mph14.5 kmh 30.07 in1018.3 mb 0.00 in0.0 mm 0.00 in/hr0.0 mm/hr 0.00 in0.0 mm
01:15 AM 50.0°F10.0°C 28.4°F-2.0°C 43% 5.0 mph SSE8.0 kmh SSE 13.0 mph20.9 kmh 30.06 in1017.9 mb 0.00 in0.0 mm 0.00 in/hr0.0 mm/hr 0.00 in0.0 mm
01:30 AM 49.6°F9.8°C 29.1°F-1.6°C 45% 5.0 mph SE8.0 kmh SE 10.0 mph16.1 kmh 30.06 in1017.9 mb 0.00 in0.0 mm 0.00 in/hr0.0 mm/hr 0.00 in0.0 mm
01:45 AM 49.2°F9.6°C 29.3°F-1.5°C 46% 5.0 mph SSE8.0 kmh SSE 12.0 mph19.3 kmh 30.05 in1017.6 mb 0.00 in0.0 mm 0.00 in/hr0.0 mm/hr 0.00 in0.0 mm
02:00 AM 49.1°F9.5°C 29.2°F-1.6°C 46% 6.0 mph SSE9.7 kmh SSE 14.0 mph22.5 kmh 30.04 in1017.3 mb 0.00 in0.0 mm 0.00 in/hr0.0 mm/hr 0.00 in0.0 mm
02:15 AM 48.9°F9.4°C 29.5°F-1.4°C 47% 6.0 mph SSE9.7 kmh SSE 14.0 mph22.5 kmh 30.04 in1017.3 mb 0.00 in0.0 mm 0.00 in/hr0.0 mm/hr 0.00 in0.0 mm
02:30 AM 48.9°F9.4°C 29.5°F-1.4°C 47% 7.0 mph SSE11.3 kmh SSE 14.0 mph22.5 kmh 30.04 in1017.3 mb 0.00 in0.0 mm 0.00 in/hr0.0 mm/hr 0.00 in0.0 mm
02:45 AM 48.5°F9.2°C 30.2°F-1.0°C 49% 5.0 mph SSE8.0 kmh SSE 11.0 mph17.7 kmh 30.04 in1017.3 mb 0.00 in0.0 mm 0.00 in/hr0.0 mm/hr 0.00 in0.0 mm
03:00 AM 48.4°F9.1°C 30.1°F-1.1°C 49% 5.0 mph SSE8.0 kmh SSE 10.0 mph16.1 kmh 30.04 in1017.3 mb 0.00 in0.0 mm 0.00 in/hr0.0 mm/hr 0.00 in0.0 mm
03:15 AM 48.2°F9.0°C 30.4°F-0.9°C 50% 6.0 mph SSE9.7 kmh SSE 12.0 mph19.3 kmh 30.04 in1017.3 mb 0.00 in0.0 mm 0.00 in/hr0.0 mm/hr 0.00 in0.0 mm
03:30 AM 47.9°F8.8°C 30.6°F-0.8°C 51% 5.0 mph S8.0 kmh S 10.0 mph16.1 kmh 30.04 in1017.3 mb 0.00 in0.0 mm 0.00 in/hr0.0 mm/hr 0.00 in0.0 mm
03:45 AM 47.5°F8.6°C 30.7°F-0.7°C 52% 5.0 mph SSE8.0 kmh SSE 12.0 mph19.3 kmh 30.04 in1017.3 mb 0.00 in0.0 mm 0.00 in/hr0.0 mm/hr 0.00 in0.0 mm
04:00 AM 47.3°F8.5°C 31.0°F-0.6°C 53% 6.0 mph SSE9.7 kmh SSE 7.0 mph11.3 kmh 30.03 in1016.9 mb 0.00 in0.0 mm 0.00 in/hr0.0 mm/hr 0.00 in0.0 mm
04:15 AM 47.2°F8.4°C 30.9°F-0.6°C 53% 5.0 mph SE8.0 kmh SE 11.0 mph17.7 kmh 30.03 in1016.9 mb 0.00 in0.0 mm 0.00 in/hr0.0 mm/hr 0.00 in0.0 mm
04:30 AM 47.0°F8.3°C 30.7°F-0.7°C 53% 5.0 mph SSE8.0 kmh SSE 10.0 mph16.1 kmh 30.03 in1016.9 mb 0.00 in0.0 mm 0.00 in/hr0.0 mm/hr 0.00 in0.0 mm
04:45 AM 46.6°F8.1°C 30.8°F-0.7°C 54% 5.0 mph SSE8.0 kmh SSE 12.0 mph19.3 kmh 30.02 in1016.6 mb 0.00 in0.0 mm 0.00 in/hr0.0 mm/hr 0.00 in0.0 mm
05:00 AM 46.3°F7.9°C 31.0°F-0.6°C 55% 6.0 mph SSE9.7 kmh SSE 10.0 mph16.1 kmh 30.02 in1016.6 mb 0.00 in0.0 mm 0.00 in/hr0.0 mm/hr 0.00 in0.0 mm
05:15 AM 45.9°F7.7°C 31.1°F-0.5°C 56% 5.0 mph SSE8.0 kmh SSE 11.0 mph17.7 kmh 30.02 in1016.6 mb 0.00 in0.0 mm 0.00 in/hr0.0 mm/hr 0.00 in0.0 mm
05:30 AM 45.7°F7.6°C 30.9°F-0.6°C 56% 5.0 mph SSE8.0 kmh SSE 11.0 mph17.7 kmh 30.02 in1016.6 mb 0.00 in0.0 mm 0.00 in/hr0.0 mm/hr 0.00 in0.0 mm
05:45 AM 45.6°F7.6°C 31.2°F-0.4°C 57% 5.0 mph SSE8.0 kmh SSE 8.0 mph12.9 kmh 30.04 in1017.3 mb 0.00 in0.0 mm 0.00 in/hr0.0 mm/hr 0.00 in0.0 mm
06:00 AM 45.5°F7.5°C 31.1°F-0.5°C 57% 5.0 mph SSE8.0 kmh SSE 13.0 mph20.9 kmh 30.03 in1016.9 mb 0.00 in0.0 mm 0.00 in/hr0.0 mm/hr 0.00 in0.0 mm
06:15 AM 45.6°F7.6°C 30.8°F-0.7°C 56% 6.0 mph SSE9.7 kmh SSE 12.0 mph19.3 kmh 30.03 in1016.9 mb 0.00 in0.0 mm 0.00 in/hr0.0 mm/hr 0.00 in0.0 mm
06:30 AM 45.5°F7.5°C 30.7°F-0.7°C 56% 5.0 mph SSE8.0 kmh SSE 10.0 mph16.1 kmh 30.03 in1016.9 mb 0.00 in0.0 mm 0.00 in/hr0.0 mm/hr 0.00 in0.0 mm
06:45 AM 45.6°F7.6°C 30.8°F-0.7°C 56% 6.0 mph SSE9.7 kmh SSE 15.0 mph24.1 kmh 30.03 in1016.9 mb 0.00 in0.0 mm 0.00 in/hr0.0 mm/hr 0.00 in0.0 mm
07:00 AM 45.7°F7.6°C 30.9°F-0.6°C 56% 7.0 mph SSE11.3 kmh SSE 12.0 mph19.3 kmh 30.03 in1016.9 mb 0.00 in0.0 mm 0.00 in/hr0.0 mm/hr 0.00 in0.0 mm
07:15 AM 45.9°F7.7°C 30.6°F-0.8°C 55% 6.0 mph SSE9.7 kmh SSE 19.0 mph30.6 kmh 30.04 in1017.3 mb 0.00 in0.0 mm 0.00 in/hr0.0 mm/hr 0.00 in0.0 mm
07:30 AM 46.1°F7.8°C 30.8°F-0.7°C 55% 6.0 mph SSE9.7 kmh SSE 18.0 mph29.0 kmh 30.04 in1017.3 mb 0.00 in0.0 mm 0.00 in/hr0.0 mm/hr 0.00 in0.0 mm
07:45 AM 46.3°F7.9°C 31.0°F-0.6°C 55% 6.0 mph S9.7 kmh S 13.0 mph20.9 kmh 30.05 in1017.6 mb 0.00 in0.0 mm 0.00 in/hr0.0 mm/hr 0.00 in0.0 mm
08:00 AM 46.5°F8.1°C 31.6°F-0.2°C 56% 5.0 mph SSE8.0 kmh SSE 14.0 mph22.5 kmh 30.05 in1017.6 mb 0.00 in0.0 mm 0.00 in/hr0.0 mm/hr 0.00 in0.0 mm
08:15 AM 47.0°F8.3°C 31.7°F-0.2°C 55% 6.0 mph SSE9.7 kmh SSE 9.0 mph14.5 kmh 30.05 in1017.6 mb 0.00 in0.0 mm 0.00 in/hr0.0 mm/hr 0.00 in0.0 mm
08:30 AM 48.2°F9.0°C 32.3°F0.2°C 54% 7.0 mph SSE11.3 kmh SSE 14.0 mph22.5 kmh 30.04 in1017.3 mb 0.00 in0.0 mm 0.00 in/hr0.0 mm/hr 0.00 in0.0 mm
08:45 AM 49.5°F9.7°C 32.1°F0.1°C 51% 7.0 mph SSE11.3 kmh SSE 15.0 mph24.1 kmh 30.04 in1017.3 mb 0.00 in0.0 mm 0.00 in/hr0.0 mm/hr 0.00 in0.0 mm
09:00 AM 51.5°F10.8°C 31.9°F-0.1°C 47% 7.0 mph S11.3 kmh S 20.0 mph32.2 kmh 30.02 in1016.6 mb 0.00 in0.0 mm 0.00 in/hr0.0 mm/hr 0.00 in0.0 mm
09:15 AM 53.3°F11.8°C 32.5°F0.3°C 45% 9.0 mph SSE14.5 kmh SSE 16.0 mph25.7 kmh 30.02 in1016.6 mb 0.00 in0.0 mm 0.00 in/hr0.0 mm/hr 0.00 in0.0 mm
09:30 AM 55.2°F12.9°C 31.9°F-0.1°C 41% 8.0 mph SSE12.9 kmh SSE 21.0 mph33.8 kmh 30.02 in1016.6 mb 0.00 in0.0 mm 0.00 in/hr0.0 mm/hr 0.00 in0.0 mm
09:45 AM 55.7°F13.2°C 31.7°F-0.2°C 40% 9.0 mph SSE14.5 kmh SSE 19.0 mph30.6 kmh 30.02 in1016.6 mb 0.00 in0.0 mm 0.00 in/hr0.0 mm/hr 0.00 in0.0 mm
10:00 AM 56.3°F13.5°C 32.3°F0.2°C 40% 10.0 mph S16.1 kmh S 17.0 mph27.4 kmh 30.02 in1016.6 mb 0.00 in0.0 mm 0.00 in/hr0.0 mm/hr 0.00 in0.0 mm
10:15 AM 56.4°F13.6°C 31.7°F-0.2°C 39% 9.0 mph S14.5 kmh S 15.0 mph24.1 kmh 30.02 in1016.6 mb 0.00 in0.0 mm 0.00 in/hr0.0 mm/hr 0.00 in0.0 mm
10:30 AM 56.3°F13.5°C 32.3°F0.2°C 40% 9.0 mph S14.5 kmh S 16.0 mph25.7 kmh 30.02 in1016.6 mb 0.00 in0.0 mm 0.00 in/hr0.0 mm/hr 0.00 in0.0 mm
10:45 AM 57.2°F14.0°C 32.4°F0.2°C 39% 10.0 mph S16.1 kmh S 18.0 mph29.0 kmh 30.02 in1016.6 mb 0.00 in0.0 mm 0.00 in/hr0.0 mm/hr 0.00 in0.0 mm
11:00 AM 57.2°F14.0°C 31.1°F-0.5°C 37% 11.0 mph SSE17.7 kmh SSE 23.0 mph37.0 kmh 30.03 in1016.9 mb 0.00 in0.0 mm 0.00 in/hr0.0 mm/hr 0.00 in0.0 mm
11:15 AM 57.9°F14.4°C 32.4°F0.2°C 38% 9.0 mph SSE14.5 kmh SSE 20.0 mph32.2 kmh 30.03 in1016.9 mb 0.00 in0.0 mm 0.00 in/hr0.0 mm/hr 0.00 in0.0 mm
11:30 AM 59.2°F15.1°C 32.9°F0.5°C 37% 9.0 mph SSE14.5 kmh SSE 20.0 mph32.2 kmh 30.02 in1016.6 mb 0.00 in0.0 mm 0.00 in/hr0.0 mm/hr 0.00 in0.0 mm
11:45 AM 60.4°F15.8°C 32.6°F0.3°C 35% 9.0 mph S14.5 kmh S 15.0 mph24.1 kmh 30.01 in1016.3 mb 0.00 in0.0 mm 0.00 in/hr0.0 mm/hr 0.00 in0.0 mm
12:00 PM 60.9°F16.1°C 33.7°F0.9°C 36% 10.0 mph SSE16.1 kmh SSE 18.0 mph29.0 kmh 30.01 in1016.3 mb 0.00 in0.0 mm 0.00 in/hr0.0 mm/hr 0.00 in0.0 mm
12:15 PM 61.4°F16.3°C 32.0°F0.0°C 33% 8.0 mph SSE12.9 kmh SSE 19.0 mph30.6 kmh 30.01 in1016.3 mb 0.00 in0.0 mm 0.00 in/hr0.0 mm/hr 0.00 in0.0 mm
12:30 PM 62.0°F16.7°C 34.0°F1.1°C 35% 9.0 mph SSE14.5 kmh SSE 20.0 mph32.2 kmh 30.00 in1015.9 mb 0.00 in0.0 mm 0.00 in/hr0.0 mm/hr 0.00 in0.0 mm
12:45 PM 62.3°F16.8°C 32.8°F0.4°C 33% 10.0 mph SSE16.1 kmh SSE 18.0 mph29.0 kmh 30.00 in1015.9 mb 0.00 in0.0 mm 0.00 in/hr0.0 mm/hr 0.00 in0.0 mm
01:00 PM 62.9°F17.2°C 32.6°F0.3°C 32% 9.0 mph SSE14.5 kmh SSE 18.0 mph29.0 kmh 30.00 in1015.9 mb 0.00 in0.0 mm 0.00 in/hr0.0 mm/hr 0.00 in0.0 mm
01:15 PM 63.6°F17.6°C 33.2°F0.7°C 32% 9.0 mph S14.5 kmh S 21.0 mph33.8 kmh 29.97 in1014.9 mb 0.00 in0.0 mm 0.00 in/hr0.0 mm/hr 0.00 in0.0 mm
01:30 PM 64.5°F18.1°C 31.5°F-0.3°C 29% 8.0 mph S12.9 kmh S 21.0 mph33.8 kmh 29.96 in1014.6 mb 0.00 in0.0 mm 0.00 in/hr0.0 mm/hr 0.00 in0.0 mm
01:45 PM 65.0°F18.3°C 32.8°F0.4°C 30% 9.0 mph S14.5 kmh S 22.0 mph35.4 kmh 29.95 in1014.2 mb 0.00 in0.0 mm 0.00 in/hr0.0 mm/hr 0.00 in0.0 mm
02:00 PM 65.4°F18.6°C 34.0°F1.1°C 31% 8.0 mph SE12.9 kmh SE 13.0 mph20.9 kmh 29.95 in1014.2 mb 0.00 in0.0 mm 0.00 in/hr0.0 mm/hr 0.00 in0.0 mm
02:15 PM 65.9°F18.8°C 33.6°F0.9°C 30% 9.0 mph S14.5 kmh S 16.0 mph25.7 kmh 29.94 in1013.9 mb 0.00 in0.0 mm 0.00 in/hr0.0 mm/hr 0.00 in0.0 mm
02:30 PM 66.1°F18.9°C 34.6°F1.4°C 31% 9.0 mph SSE14.5 kmh SSE 18.0 mph29.0 kmh 29.94 in1013.9 mb 0.00 in0.0 mm 0.00 in/hr0.0 mm/hr 0.00 in0.0 mm
02:45 PM 66.6°F19.2°C 35.0°F1.7°C 31% 9.0 mph S14.5 kmh S 16.0 mph25.7 kmh 29.94 in1013.9 mb 0.00 in0.0 mm 0.00 in/hr0.0 mm/hr 0.00 in0.0 mm
03:00 PM 66.8°F19.3°C 34.3°F1.3°C 30% 8.0 mph SSE12.9 kmh SSE 13.0 mph20.9 kmh 29.93 in1013.5 mb 0.00 in0.0 mm 0.00 in/hr0.0 mm/hr 0.00 in0.0 mm
03:15 PM 66.5°F19.2°C 35.7°F2.1°C 32% 8.0 mph SSE12.9 kmh SSE 16.0 mph25.7 kmh 29.92 in1013.2 mb 0.00 in0.0 mm 0.00 in/hr0.0 mm/hr 0.00 in0.0 mm
03:30 PM 67.5°F19.7°C 35.8°F2.1°C 31% 8.0 mph SSE12.9 kmh SSE 19.0 mph30.6 kmh 29.91 in1012.9 mb 0.00 in0.0 mm 0.00 in/hr0.0 mm/hr 0.00 in0.0 mm
03:45 PM 67.5°F19.7°C 37.4°F3.0°C 33% 9.0 mph SSE14.5 kmh SSE 17.0 mph27.4 kmh 29.90 in1012.5 mb 0.00 in0.0 mm 0.00 in/hr0.0 mm/hr 0.00 in0.0 mm
04:00 PM 68.0°F20.0°C 37.0°F2.8°C 32% 8.0 mph SSE12.9 kmh SSE 21.0 mph33.8 kmh 29.89 in1012.2 mb 0.00 in0.0 mm 0.00 in/hr0.0 mm/hr 0.00 in0.0 mm
04:15 PM 68.1°F20.1°C 37.1°F2.8°C 32% 8.0 mph SSE12.9 kmh SSE 11.0 mph17.7 kmh 29.89 in1012.2 mb 0.00 in0.0 mm 0.00 in/hr0.0 mm/hr 0.00 in0.0 mm
04:30 PM 68.3°F20.2°C 36.5°F2.5°C 31% 7.0 mph SSE11.3 kmh SSE 19.0 mph30.6 kmh 29.89 in1012.2 mb 0.00 in0.0 mm 0.00 in/hr0.0 mm/hr 0.00 in0.0 mm
04:45 PM 68.4°F20.2°C 36.6°F2.6°C 31% 8.0 mph S12.9 kmh S 17.0 mph27.4 kmh 29.88 in1011.9 mb 0.00 in0.0 mm 0.00 in/hr0.0 mm/hr 0.00 in0.0 mm
05:00 PM 68.0°F20.0°C 37.8°F3.2°C 33% 10.0 mph S16.1 kmh S 19.0 mph30.6 kmh 29.87 in1011.5 mb 0.00 in0.0 mm 0.00 in/hr0.0 mm/hr 0.00 in0.0 mm
05:15 PM 67.9°F19.9°C 36.9°F2.7°C 32% 9.0 mph SSE14.5 kmh SSE 23.0 mph37.0 kmh 29.87 in1011.5 mb 0.00 in0.0 mm 0.00 in/hr0.0 mm/hr 0.00 in0.0 mm
05:30 PM 68.4°F20.2°C 38.2°F3.4°C 33% 6.0 mph SSE9.7 kmh SSE 15.0 mph24.1 kmh 29.87 in1011.5 mb 0.00 in0.0 mm 0.00 in/hr0.0 mm/hr 0.00 in0.0 mm
05:45 PM 68.0°F20.0°C 38.6°F3.7°C 34% 8.0 mph SSE12.9 kmh SSE 16.0 mph25.7 kmh 29.87 in1011.5 mb 0.00 in0.0 mm 0.00 in/hr0.0 mm/hr 0.00 in0.0 mm
06:00 PM 67.6°F19.8°C 39.0°F3.9°C 35% 7.0 mph SE11.3 kmh SE 16.0 mph25.7 kmh 29.88 in1011.9 mb 0.00 in0.0 mm 0.00 in/hr0.0 mm/hr 0.00 in0.0 mm
06:15 PM 67.3°F19.6°C 39.4°F4.1°C 36% 7.0 mph SSE11.3 kmh SSE 18.0 mph29.0 kmh 29.88 in1011.9 mb 0.00 in0.0 mm 0.00 in/hr0.0 mm/hr 0.00 in0.0 mm
06:30 PM 67.1°F19.5°C 39.2°F4.0°C 36% 6.0 mph SE9.7 kmh SE 18.0 mph29.0 kmh 29.88 in1011.9 mb 0.00 in0.0 mm 0.00 in/hr0.0 mm/hr 0.00 in0.0 mm
06:45 PM 66.8°F19.3°C 39.7°F4.3°C 37% 6.0 mph SSE9.7 kmh SSE 18.0 mph29.0 kmh 29.88 in1011.9 mb 0.00 in0.0 mm 0.00 in/hr0.0 mm/hr 0.00 in0.0 mm
07:00 PM 66.3°F19.1°C 39.9°F4.4°C 38% 7.0 mph S11.3 kmh S 13.0 mph20.9 kmh 29.88 in1011.9 mb 0.00 in0.0 mm 0.00 in/hr0.0 mm/hr 0.00 in0.0 mm
07:15 PM 65.6°F18.7°C 40.0°F4.4°C 39% 5.0 mph SE8.0 kmh SE 14.0 mph22.5 kmh 29.89 in1012.2 mb 0.00 in0.0 mm 0.00 in/hr0.0 mm/hr 0.00 in0.0 mm
07:30 PM 64.8°F18.2°C 39.9°F4.4°C 40% 6.0 mph SE9.7 kmh SE 13.0 mph20.9 kmh 29.89 in1012.2 mb 0.00 in0.0 mm 0.00 in/hr0.0 mm/hr 0.00 in0.0 mm
07:45 PM 63.8°F17.7°C 40.3°F4.6°C 42% 5.0 mph SSE8.0 kmh SSE 10.0 mph16.1 kmh 29.89 in1012.2 mb 0.00 in0.0 mm 0.00 in/hr0.0 mm/hr 0.00 in0.0 mm
08:00 PM 63.0°F17.2°C 40.1°F4.5°C 43% 4.0 mph SE6.4 kmh SE 8.0 mph12.9 kmh 29.90 in1012.5 mb 0.00 in0.0 mm 0.00 in/hr0.0 mm/hr 0.00 in0.0 mm
08:15 PM 62.3°F16.8°C 40.1°F4.5°C 44% 3.0 mph SE4.8 kmh SE 7.0 mph11.3 kmh 29.91 in1012.9 mb 0.00 in0.0 mm 0.00 in/hr0.0 mm/hr 0.00 in0.0 mm
08:30 PM 61.3°F16.3°C 40.9°F4.9°C 47% 2.0 mph SE3.2 kmh SE 3.0 mph4.8 kmh 29.91 in1012.9 mb 0.00 in0.0 mm 0.00 in/hr0.0 mm/hr 0.00 in0.0 mm
08:45 PM 60.0°F15.6°C 41.3°F5.2°C 50% 1.0 mph E1.6 kmh E 6.0 mph9.7 kmh 29.92 in1013.2 mb 0.00 in0.0 mm 0.00 in/hr0.0 mm/hr 0.00 in0.0 mm
09:30 PM 58.6°F14.8°C 43.4°F6.3°C 57% 3.0 mph ESE4.8 kmh ESE 10.0 mph16.1 kmh 29.93 in1013.5 mb 0.00 in0.0 mm 0.00 in/hr0.0 mm/hr 0.00 in0.0 mm
09:45 PM 58.4°F14.7°C 43.2°F6.2°C 57% 4.0 mph ESE6.4 kmh ESE 8.0 mph12.9 kmh 29.94 in1013.9 mb 0.00 in0.0 mm 0.00 in/hr0.0 mm/hr 0.00 in0.0 mm
10:00 PM 57.8°F14.3°C 43.6°F6.4°C 59% 4.0 mph E6.4 kmh E 8.0 mph12.9 kmh 29.95 in1014.2 mb 0.00 in0.0 mm 0.00 in/hr0.0 mm/hr 0.00 in0.0 mm
10:15 PM 57.4°F14.1°C 43.6°F6.4°C 60% 3.0 mph ESE4.8 kmh ESE 7.0 mph11.3 kmh 29.95 in1014.2 mb 0.00 in0.0 mm 0.00 in/hr0.0 mm/hr 0.00 in0.0 mm
10:45 PM 56.6°F13.7°C 43.7°F6.5°C 62% 3.0 mph E4.8 kmh E 7.0 mph11.3 kmh 29.97 in1014.9 mb 0.00 in0.0 mm 0.00 in/hr0.0 mm/hr 0.00 in0.0 mm
11:00 PM 56.3°F13.5°C 43.9°F6.6°C 63% 4.0 mph ESE6.4 kmh ESE 10.0 mph16.1 kmh 29.97 in1014.9 mb 0.00 in0.0 mm 0.00 in/hr0.0 mm/hr 0.00 in0.0 mm
11:15 PM 55.9°F13.3°C 43.9°F6.6°C 64% 3.0 mph ESE4.8 kmh ESE 9.0 mph14.5 kmh 29.97 in1014.9 mb 0.00 in0.0 mm 0.00 in/hr0.0 mm/hr 0.00 in0.0 mm
11:30 PM 55.5°F13.1°C 43.9°F6.6°C 65% 3.0 mph E4.8 kmh E 6.0 mph9.7 kmh 29.98 in1015.2 mb 0.00 in0.0 mm 0.00 in/hr0.0 mm/hr 0.00 in0.0 mm
11:45 PM 55.3°F12.9°C 44.1°F6.7°C 66% 4.0 mph E6.4 kmh E 10.0 mph16.1 kmh 29.99 in1015.6 mb 0.00 in0.0 mm 0.00 in/hr0.0 mm/hr 0.00 in0.0 mm